createdAt,value
2018-10-02T00:02:47.888Z,0.87
2018-10-02T00:08:42.876Z,0.83
2018-10-02T00:14:37.896Z,1.12
2018-10-02T00:20:32.928Z,0.95
2018-10-02T00:26:27.904Z,0.99
2018-10-02T00:32:23.128Z,0.86
2018-10-02T00:38:17.921Z,0.84
2018-10-02T00:44:12.942Z,0.91
2018-10-02T00:50:07.927Z,0.8
2018-10-02T00:56:02.922Z,0.67
2018-10-02T01:01:57.951Z,0.81
2018-10-02T01:07:52.954Z,0.86
2018-10-02T01:13:47.951Z,0.71
2018-10-02T01:19:43.078Z,0.75
2018-10-02T01:25:37.959Z,0.65
2018-10-02T01:31:32.968Z,0.61
2018-10-02T01:37:27.955Z,0.68
2018-10-02T01:43:23.023Z,0.64
2018-10-02T01:49:17.957Z,0.7
2018-10-02T01:55:13.024Z,0.92
2018-10-02T02:01:07.959Z,0.8
2018-10-02T02:07:02.995Z,0.76
2018-10-02T02:12:57.977Z,0.7
2018-10-02T02:18:53.001Z,0.72
2018-10-02T02:24:48.016Z,0.76
2018-10-02T02:30:43.020Z,0.9
2018-10-02T02:36:38.025Z,0.72
2018-10-02T02:42:33.054Z,0.84
2018-10-02T02:48:28.048Z,0.75
2018-10-02T02:54:23.016Z,0.87
2018-10-02T03:00:18.001Z,0.7
2018-10-02T03:06:13.055Z,0.91
2018-10-02T03:12:08.008Z,1.03
2018-10-02T03:18:02.989Z,0.83
2018-10-02T03:23:58.054Z,1.01
2018-10-02T03:29:53.009Z,1.29
2018-10-02T03:35:48.022Z,1.25
2018-10-02T03:41:43.049Z,1.2
2018-10-02T03:47:38.027Z,1.29
2018-10-02T03:53:33.067Z,0.88
2018-10-02T03:59:28.034Z,1.06
2018-10-02T04:05:23.061Z,0.97
2018-10-02T04:11:18.061Z,0.81
2018-10-02T04:17:13.076Z,0.82
2018-10-02T04:23:08.087Z,0.87
2018-10-02T04:29:03.075Z,0.6
2018-10-02T04:34:58.070Z,0.59
2018-10-02T04:40:53.062Z,0.64
2018-10-02T04:46:48.123Z,0.59
2018-10-02T04:52:43.072Z,0.74
2018-10-02T04:58:38.081Z,0.66
2018-10-02T05:04:33.155Z,0.8
2018-10-02T05:10:28.083Z,0.6
2018-10-02T05:16:23.112Z,0.74
2018-10-02T05:22:18.134Z,0.88
2018-10-02T05:28:13.101Z,0.78
2018-10-02T05:34:08.121Z,0.6
2018-10-02T05:40:03.112Z,0.61
2018-10-02T05:45:58.123Z,0.72
2018-10-02T05:51:53.113Z,0.87
2018-10-02T05:57:48.157Z,1.18
2018-10-02T06:03:43.168Z,1.43
2018-10-02T06:09:38.134Z,1.09
2018-10-02T06:15:33.131Z,1.53
2018-10-02T06:21:28.144Z,1.73
2018-10-02T06:27:23.189Z,1.79
2018-10-02T06:33:18.134Z,1.36
2018-10-02T06:39:13.185Z,1.48
2018-10-02T06:45:08.233Z,0.97
2018-10-02T06:51:03.287Z,1.02
2018-10-02T06:56:58.205Z,1.07
2018-10-02T07:02:53.155Z,1.05
2018-10-02T07:08:48.178Z,1.19
2018-10-02T07:14:43.254Z,1.43
2018-10-02T07:20:38.195Z,1.41
2018-10-02T07:26:33.303Z,0.97
2018-10-02T07:32:28.204Z,1.15
2018-10-02T07:38:23.198Z,0.98
2018-10-02T07:44:18.194Z,0.97
2018-10-02T07:50:13.185Z,1.07
2018-10-02T07:56:08.229Z,1.06
2018-10-02T08:02:03.201Z,0.9
2018-10-02T08:07:58.194Z,0.95
2018-10-02T08:13:53.257Z,1.18
2018-10-02T08:19:48.208Z,1.09
2018-10-02T08:25:43.212Z,1.7
2018-10-02T08:31:38.208Z,1.61
2018-10-02T08:37:33.227Z,1.33
2018-10-02T08:43:28.313Z,1
2018-10-02T08:49:23.219Z,1.1
2018-10-02T08:55:18.234Z,1.01
2018-10-02T09:01:13.348Z,1.08
2018-10-02T09:07:08.230Z,1.09
2018-10-02T09:13:03.297Z,1.1
2018-10-02T09:18:58.338Z,1.04
2018-10-02T09:24:53.301Z,0.96
2018-10-02T09:30:48.292Z,1.05
2018-10-02T09:36:43.272Z,1.01
2018-10-02T09:42:38.368Z,0.97
2018-10-02T09:48:33.288Z,1.13
2018-10-02T09:54:28.317Z,1.46
2018-10-02T10:00:23.306Z,0.92
2018-10-02T10:06:18.281Z,1.3
2018-10-02T10:12:13.260Z,1.43
2018-10-02T10:18:08.289Z,1.34
2018-10-02T10:24:03.291Z,1.12
2018-10-02T10:29:58.291Z,1.17
2018-10-02T10:35:53.277Z,1.44
2018-10-02T10:41:48.295Z,1.44
2018-10-02T10:47:43.341Z,1.34
2018-10-02T10:53:38.328Z,1.06
2018-10-02T10:59:33.299Z,0.89
2018-10-02T11:05:28.298Z,0.8
2018-10-02T11:11:23.337Z,1.1
2018-10-02T11:17:18.305Z,0.96
2018-10-02T11:23:13.322Z,1.17
2018-10-02T11:29:08.320Z,0.94
2018-10-02T11:35:03.314Z,1.44
2018-10-02T11:40:58.329Z,1.36
2018-10-02T11:46:53.425Z,1.31
2018-10-02T11:52:48.333Z,1.26
2018-10-02T11:58:43.339Z,1.49
2018-10-02T12:04:38.376Z,1.54
2018-10-02T12:10:33.349Z,1.68
2018-10-02T12:16:28.358Z,1.81
2018-10-02T12:22:23.359Z,1.98
2018-10-02T12:28:18.354Z,1.66
2018-10-02T12:34:13.366Z,1.89
2018-10-02T12:40:08.387Z,1.94
2018-10-02T12:46:03.451Z,2.23
2018-10-02T12:51:58.397Z,1.8
2018-10-02T12:57:53.397Z,1.8
2018-10-02T13:03:48.404Z,1.82
2018-10-02T13:09:43.419Z,1.66
2018-10-02T13:15:38.423Z,1.43
2018-10-02T13:21:33.415Z,1.67
2018-10-02T13:27:32.471Z,1.36
2018-10-02T13:33:23.503Z,2.26
2018-10-02T13:39:18.525Z,2
2018-10-02T13:45:13.475Z,1.97
2018-10-02T13:51:08.444Z,1.61
2018-10-02T13:57:03.415Z,1.85
2018-10-02T14:02:58.446Z,1.76
2018-10-02T14:08:53.441Z,2.74
2018-10-02T14:14:48.503Z,1.38
2018-10-02T14:20:43.435Z,1.54
2018-10-02T14:26:38.454Z,1.47
2018-10-02T14:32:33.449Z,1.54
2018-10-02T14:38:28.497Z,1.41
2018-10-02T14:44:23.515Z,1.76
2018-10-02T14:50:18.481Z,1.85
2018-10-02T14:56:13.505Z,1.65
2018-10-02T15:02:08.485Z,1.6
2018-10-02T15:08:03.478Z,1.99
2018-10-02T15:13:58.473Z,2.98
2018-10-02T15:19:53.513Z,1.71
2018-10-02T15:25:48.495Z,1.71
2018-10-02T15:31:43.595Z,1.66
2018-10-02T15:37:38.568Z,1.68
2018-10-02T15:43:33.530Z,1.62
2018-10-02T15:49:28.540Z,1.58
2018-10-02T15:55:23.519Z,1.66
2018-10-02T16:01:18.532Z,1.74
2018-10-02T16:07:13.535Z,1.74
2018-10-02T16:13:08.534Z,1.88
2018-10-02T16:19:03.529Z,1.69
2018-10-02T16:24:58.574Z,1.6
2018-10-02T16:30:53.533Z,1.96
2018-10-02T16:36:48.552Z,1.81
2018-10-02T16:42:43.536Z,1.98
2018-10-02T16:48:38.604Z,2.03
2018-10-02T16:54:33.665Z,2.16
2018-10-02T17:00:28.569Z,2.11
2018-10-02T17:06:23.554Z,2.09
2018-10-02T17:12:18.590Z,2.31
2018-10-02T17:18:13.693Z,2.39
2018-10-02T17:24:08.576Z,2.17
2018-10-02T17:30:03.626Z,1.91
2018-10-02T17:35:58.641Z,1.61
2018-10-02T17:41:53.591Z,2.69
2018-10-02T17:47:48.593Z,1.45
2018-10-02T17:53:43.597Z,1.54
2018-10-02T17:59:38.605Z,1.67
2018-10-02T18:05:33.603Z,1.6
2018-10-02T18:11:28.609Z,1.42
2018-10-02T18:17:23.611Z,1.41
2018-10-02T18:23:18.644Z,1.38
2018-10-02T18:29:13.683Z,1.65
2018-10-02T18:35:08.659Z,1.12
2018-10-02T18:41:03.622Z,1.63
2018-10-02T18:46:58.621Z,1.26
2018-10-02T18:52:53.649Z,1.34
2018-10-02T18:58:48.670Z,1.32
2018-10-02T19:04:43.633Z,1.24
2018-10-02T19:10:38.670Z,1.16
2018-10-02T19:16:33.642Z,1.38
2018-10-02T19:22:28.673Z,1.22
2018-10-02T19:28:23.674Z,1.32
2018-10-02T19:34:18.715Z,1.53
2018-10-02T19:40:13.676Z,1.15
2018-10-02T19:46:08.692Z,1.44
2018-10-02T19:52:03.738Z,1.35
2018-10-02T19:57:58.687Z,1.24
2018-10-02T20:03:53.760Z,1.23
2018-10-02T20:09:48.693Z,1.26
2018-10-02T20:15:43.706Z,1.33
2018-10-02T20:21:38.730Z,1.18
2018-10-02T20:27:33.762Z,1.29
2018-10-02T20:33:28.780Z,1.13
2018-10-02T20:39:23.814Z,1.38
2018-10-02T20:45:18.707Z,1.47
2018-10-02T20:51:13.834Z,0.97
2018-10-02T20:57:08.711Z,1.02
2018-10-02T21:03:03.776Z,1.08
2018-10-02T21:08:58.722Z,1.13
2018-10-02T21:14:53.753Z,1.02
2018-10-02T21:20:48.726Z,1.16
2018-10-02T21:26:45.059Z,1.13
2018-10-02T21:32:38.734Z,1.15
2018-10-02T21:38:33.755Z,1.1
2018-10-02T21:44:28.760Z,0.99
2018-10-02T21:50:23.769Z,1.1
2018-10-02T21:56:18.772Z,0.96
2018-10-02T22:02:13.797Z,0.92
2018-10-02T22:08:09.419Z,0.9
2018-10-02T22:14:03.827Z,0.93
2018-10-02T22:19:58.882Z,1.02
2018-10-02T22:25:53.822Z,1.45
2018-10-02T22:31:48.898Z,1.45
2018-10-02T22:37:43.815Z,1.16
2018-10-02T22:43:38.824Z,1.44
2018-10-02T22:49:33.861Z,1.3
2018-10-02T22:55:28.846Z,1.41
2018-10-02T23:01:23.893Z,1.61
2018-10-02T23:07:18.850Z,1.75
2018-10-02T23:13:13.839Z,1.68
2018-10-02T23:19:08.851Z,1.45
2018-10-02T23:25:03.875Z,1.4
2018-10-02T23:30:59.658Z,1.34
2018-10-02T23:36:53.976Z,1.25
2018-10-02T23:42:48.852Z,1.29
2018-10-02T23:48:43.874Z,1.21
